TimeCST,TemperatureF,Dew PointF,Humidity,Sea Level PressureIn,VisibilityMPH,Wind Direction,Wind SpeedMPH,Gust SpeedMPH,PrecipitationIn,Events,Conditions,WindDirDegrees,DateUTC
12:52 AM,28.9,27.0,92,30.01,-9999.0,Calm,Calm,-,N/A,,Unknown,0,2012-11-18 06:52:00
1:52 AM,28.9,27.0,92,29.99,-9999.0,Calm,Calm,-,N/A,,Unknown,0,2012-11-18 07:52:00
2:52 AM,27.0,26.1,96,29.98,-9999.0,Calm,Calm,-,N/A,,Unknown,0,2012-11-18 08:52:00
3:52 AM,28.0,26.1,92,29.96,-9999.0,Calm,Calm,-,N/A,,Unknown,0,2012-11-18 09:52:00
4:52 AM,28.0,27.0,96,29.95,-9999.0,East,3.5,-,N/A,,Unknown,90,2012-11-18 10:52:00
5:52 AM,28.0,26.1,92,29.94,-9999.0,ESE,5.8,-,N/A,,Unknown,110,2012-11-18 11:52:00
6:52 AM,27.0,26.1,96,29.94,-9999.0,ESE,8.1,-,N/A,,Unknown,110,2012-11-18 12:52:00
7:52 AM,27.0,26.1,96,29.95,-9999.0,ESE,4.6,-,N/A,,Unknown,110,2012-11-18 13:52:00
8:52 AM,30.0,28.9,96,29.94,-9999.0,ESE,4.6,-,N/A,,Unknown,110,2012-11-18 14:52:00
9:52 AM,33.1,32.0,96,29.93,-9999.0,ESE,6.9,-,N/A,,Unknown,120,2012-11-18 15:52:00
10:52 AM,37.0,34.0,89,29.91,-9999.0,ESE,9.2,-,N/A,,Unknown,110,2012-11-18 16:52:00
11:52 AM,39.9,36.0,86,29.90,-9999.0,SSE,9.2,-,N/A,,Unknown,160,2012-11-18 17:52:00
12:52 PM,42.1,37.0,82,29.86,-9999.0,SSE,11.5,-,N/A,,Unknown,150,2012-11-18 18:52:00
1:52 PM,44.1,37.0,76,29.84,-9999.0,SE,8.1,-,N/A,,Unknown,130,2012-11-18 19:52:00
2:52 PM,44.1,37.0,76,29.83,-9999.0,ESE,9.2,-,N/A,,Unknown,110,2012-11-18 20:52:00
3:52 PM,45.0,37.0,74,29.83,-9999.0,SSE,10.4,-,N/A,,Unknown,150,2012-11-18 21:52:00
4:52 PM,39.9,35.1,83,29.84,-9999.0,SE,8.1,-,N/A,,Unknown,140,2012-11-18 22:52:00
5:52 PM,37.9,35.1,89,29.86,-9999.0,SE,6.9,-,N/A,,Unknown,130,2012-11-18 23:52:00
6:52 PM,35.1,33.1,92,29.88,-9999.0,Calm,Calm,-,N/A,,Unknown,0,2012-11-19 00:52:00
7:52 PM,33.1,30.9,92,29.90,-9999.0,Calm,Calm,-,N/A,,Unknown,0,2012-11-19 01:52:00
8:52 PM,33.1,30.9,92,29.91,-9999.0,North,3.5,-,N/A,,Unknown,350,2012-11-19 02:52:00
9:52 PM,39.0,36.0,89,29.91,-9999.0,WNW,8.1,-,N/A,,Unknown,290,2012-11-19 03:52:00
10:52 PM,37.0,33.1,86,29.93,-9999.0,WNW,8.1,-,N/A,,Unknown,290,2012-11-19 04:52:00
11:52 PM,37.0,32.0,82,29.94,-9999.0,NW,8.1,-,N/A,,Unknown,310,2012-11-19 05:52:00